createdAt,value
2023-02-08T00:01:13.743Z,100049.63
2023-02-08T00:03:15.035Z,100052.97
2023-02-08T00:05:16.364Z,100051.25
2023-02-08T00:07:17.673Z,100047.81
2023-02-08T00:09:19.098Z,100051.25
2023-02-08T00:11:20.419Z,100051.25
2023-02-08T00:13:21.720Z,100056.38
2023-02-08T00:15:23.074Z,100046.09
2023-02-08T00:17:24.415Z,100050.31
2023-02-08T00:19:26.038Z,100050.25
2023-02-08T00:21:27.335Z,100050.22
2023-02-08T00:23:28.628Z,100049.31
2023-02-08T00:25:29.918Z,100048.41
2023-02-08T00:27:31.227Z,100046.75
2023-02-08T00:29:32.549Z,100052.69
2023-02-08T00:31:34.007Z,100045.88
2023-02-08T00:33:35.411Z,100044.19
2023-02-08T00:35:36.710Z,100041.59
2023-02-08T00:37:38.041Z,100037.31
2023-02-08T00:39:39.345Z,100043.25
2023-02-08T00:41:40.662Z,100041.56
2023-02-08T00:43:41.959Z,100044.13
2023-02-08T00:45:43.329Z,100040.66
2023-02-08T00:47:44.632Z,100048.28
2023-02-08T00:49:45.961Z,100036.31
2023-02-08T00:51:47.254Z,100043.97
2023-02-08T00:53:48.590Z,100043.16
2023-02-08T00:55:49.880Z,100042.34
2023-02-08T00:57:51.221Z,100038.09
2023-02-08T00:59:52.628Z,100039.84
2023-02-08T01:01:53.972Z,100036.53
2023-02-08T01:03:55.349Z,100043.47
2023-02-08T01:05:56.653Z,100038.41
2023-02-08T01:07:58.120Z,100033.31
2023-02-08T01:10:00.655Z,100029.94
2023-02-08T01:12:02.191Z,100024.84
2023-02-08T01:14:03.479Z,100034.28
2023-02-08T01:16:04.834Z,100023.19
2023-02-08T01:18:06.148Z,100033.44
2023-02-08T01:20:07.439Z,100028.31
2023-02-08T01:22:08.735Z,100030.00
2023-02-08T01:24:10.119Z,100030.00
2023-02-08T01:26:11.413Z,100026.59
2023-02-08T01:28:12.734Z,100025.72
2023-02-08T01:30:14.075Z,100031.69
2023-02-08T01:32:15.374Z,100036.78
2023-02-08T01:34:16.710Z,100028.22
2023-02-08T01:36:18.051Z,100027.34
2023-02-08T01:38:19.347Z,100028.16
2023-02-08T01:40:20.640Z,100029.78
2023-02-08T01:42:21.935Z,100033.09
2023-02-08T01:44:23.243Z,100036.47
2023-02-08T01:46:24.532Z,100038.16
2023-02-08T01:48:25.867Z,100039.00
2023-02-08T01:50:27.491Z,100029.59
2023-02-08T01:52:29.006Z,100035.59
2023-02-08T01:54:30.329Z,100033.84
2023-02-08T01:56:31.624Z,100028.66
2023-02-08T01:58:32.968Z,100032.97
2023-02-08T02:00:34.310Z,100022.75
2023-02-08T02:02:35.599Z,100022.72
2023-02-08T02:04:36.949Z,100015.03
2023-02-08T02:06:38.251Z,100009.88
2023-02-08T02:08:39.552Z,100012.41
2023-02-08T02:10:41.725Z,100002.19
2023-02-08T02:12:43.383Z,100000.50
2023-02-08T02:14:44.725Z,100001.41
2023-02-08T02:16:46.072Z,99992.13
2023-02-08T02:18:47.499Z,99999.84
2023-02-08T02:20:48.789Z,100002.47
2023-02-08T02:22:50.177Z,99999.97
2023-02-08T02:24:51.514Z,99997.44
2023-02-08T02:26:52.805Z,99994.91
2023-02-08T02:28:54.142Z,99994.94
2023-02-08T02:30:55.488Z,99994.16
2023-02-08T02:32:56.786Z,99996.72
2023-02-08T02:34:58.087Z,99992.50
2023-02-08T02:36:59.387Z,99988.25
2023-02-08T02:39:03.456Z,99993.38
2023-02-08T02:41:04.789Z,99999.38
2023-02-08T02:43:24.942Z,99996.81
2023-02-08T02:45:26.232Z,99995.09
2023-02-08T02:47:27.572Z,99996.78
2023-02-08T02:49:28.859Z,99991.66
2023-02-08T02:51:30.193Z,99996.75
2023-02-08T02:53:31.501Z,99994.19
2023-02-08T02:55:32.795Z,100004.38
2023-02-08T02:57:34.132Z,100000.91
2023-02-08T02:59:35.467Z,100000.06
2023-02-08T03:01:36.768Z,100006.84
2023-02-08T03:03:38.130Z,100006.81
2023-02-08T03:05:39.427Z,100007.69
2023-02-08T03:07:40.778Z,100005.09
2023-02-08T03:09:42.097Z,100007.63
2023-02-08T03:11:43.399Z,99891.13
2023-02-08T03:13:44.804Z,100014.44
2023-02-08T03:15:46.155Z,100015.28
2023-02-08T03:17:47.458Z,100011.00
2023-02-08T03:19:48.755Z,100010.97
2023-02-08T03:21:50.045Z,100015.22
2023-02-08T03:23:51.387Z,100025.44
2023-02-08T03:25:52.697Z,100013.56
2023-02-08T03:27:54.063Z,100011.84
2023-02-08T03:29:55.416Z,100017.75
2023-02-08T03:31:56.870Z,100018.56
2023-02-08T03:33:58.269Z,100023.59
2023-02-08T03:35:59.567Z,100017.56
2023-02-08T03:38:00.901Z,100026.03
2023-02-08T03:40:02.195Z,100025.13
2023-02-08T03:42:03.492Z,100028.66
2023-02-08T03:44:04.879Z,100037.91
2023-02-08T03:46:06.180Z,100039.53
2023-02-08T03:48:07.577Z,100035.25
2023-02-08T03:50:08.903Z,100043.84
2023-02-08T03:52:10.222Z,100044.97
2023-02-08T03:54:11.511Z,100043.34
2023-02-08T03:56:12.845Z,100048.50
2023-02-08T03:58:14.148Z,100050.25
2023-02-08T04:00:15.499Z,100050.28
2023-02-08T04:02:16.843Z,100043.47
2023-02-08T04:04:18.751Z,100048.38
2023-02-08T04:06:20.048Z,100051.06
2023-02-08T04:08:21.906Z,100049.50
2023-02-08T04:10:23.258Z,100056.41
2023-02-08T04:12:24.621Z,100057.28
2023-02-08T04:14:25.917Z,100055.59
2023-02-08T04:16:27.339Z,100054.72
2023-02-08T04:18:28.639Z,100053.03
2023-02-08T04:20:29.939Z,100059.84
2023-02-08T04:22:31.366Z,100064.09
2023-02-08T04:24:32.733Z,100059.81
2023-02-08T04:26:34.953Z,100062.31
2023-02-08T04:28:36.280Z,100061.41
2023-02-08T04:30:37.638Z,100058.81
2023-02-08T04:32:38.976Z,100063.88
2023-02-08T04:34:40.272Z,100056.19
2023-02-08T04:36:41.573Z,100055.28
2023-02-08T04:38:42.922Z,100061.22
2023-02-08T04:40:44.252Z,100064.59
2023-02-08T04:42:45.553Z,100068.81
2023-02-08T04:44:46.845Z,100072.09
2023-02-08T04:46:48.170Z,100067.81
2023-02-08T04:48:49.506Z,100069.47
2023-02-08T04:50:50.825Z,100066.91
2023-02-08T04:52:52.123Z,100065.16
2023-02-08T04:54:53.426Z,100055.75
2023-02-08T04:56:54.770Z,100058.28
2023-02-08T04:58:56.102Z,100061.66
2023-02-08T05:00:57.515Z,100062.50
2023-02-08T05:02:58.794Z,100058.16
2023-02-08T05:05:00.197Z,100059.81
2023-02-08T05:07:02.223Z,100058.88
2023-02-08T05:09:03.557Z,100061.31
2023-02-08T05:11:04.869Z,100056.97
2023-02-08T05:13:06.217Z,100050.94
2023-02-08T05:15:07.521Z,100044.88
2023-02-08T05:17:08.914Z,100053.31
2023-02-08T05:19:11.147Z,100060.97
2023-02-08T05:21:12.440Z,100055.03
2023-02-08T05:23:13.761Z,100054.28
2023-02-08T05:25:15.096Z,100049.31
2023-02-08T05:27:16.396Z,100037.66
2023-02-08T05:29:17.751Z,100038.66
2023-02-08T05:31:19.134Z,100039.63
2023-02-08T05:33:20.564Z,100036.31
2023-02-08T05:35:21.914Z,100038.13
2023-02-08T05:37:23.237Z,100043.31
2023-02-08T05:39:24.600Z,100046.72
2023-02-08T05:41:25.906Z,100046.75
2023-02-08T05:43:27.244Z,100048.47
2023-02-08T05:45:28.555Z,100049.44
2023-02-08T05:47:29.860Z,100052.03
2023-02-08T05:49:31.162Z,100043.47
2023-02-08T05:51:32.579Z,100043.47
2023-02-08T05:53:33.930Z,100043.47
2023-02-08T05:55:35.327Z,100052.00
2023-02-08T05:57:37.142Z,100048.59
2023-02-08T05:59:38.503Z,100050.25
2023-02-08T06:01:39.827Z,100049.41
2023-02-08T06:03:41.131Z,100057.00
2023-02-08T06:05:42.471Z,100041.63
2023-02-08T06:07:43.763Z,100051.78
2023-02-08T06:09:45.916Z,100054.31
2023-02-08T06:11:48.379Z,100051.66
2023-02-08T06:13:49.709Z,100064.41
2023-02-08T06:15:51.003Z,100066.09
2023-02-08T06:17:52.607Z,100064.31
2023-02-08T06:19:53.909Z,100061.72
2023-02-08T06:21:55.257Z,100068.47
2023-02-08T06:23:56.585Z,100064.16
2023-02-08T06:25:57.902Z,100065.84
2023-02-08T06:27:59.256Z,100065.78
2023-02-08T06:30:00.654Z,100069.16
2023-02-08T06:32:02.101Z,100070.00
2023-02-08T06:34:03.656Z,100062.31
2023-02-08T06:36:04.998Z,100069.09
2023-02-08T06:38:06.320Z,100077.59
2023-02-08T06:40:07.669Z,100082.69
2023-02-08T06:42:08.985Z,100076.69
2023-02-08T06:44:10.401Z,100078.41
2023-02-08T06:46:11.716Z,100080.09
2023-02-08T06:48:13.084Z,100080.09
2023-02-08T06:50:15.274Z,100082.69
2023-02-08T06:52:16.593Z,100087.84
2023-02-08T06:54:17.933Z,100086.19
2023-02-08T06:56:19.227Z,100090.50
2023-02-08T06:58:20.520Z,100093.97
2023-02-08T07:00:21.811Z,100094.88
2023-02-08T07:02:23.190Z,100094.94
2023-02-08T07:04:24.547Z,100105.28
2023-02-08T07:06:25.887Z,100102.84
2023-02-08T07:08:27.188Z,100112.25
2023-02-08T07:10:28.485Z,100112.22
2023-02-08T07:12:29.836Z,100112.25
2023-02-08T07:14:31.130Z,100119.97
2023-02-08T07:16:32.459Z,100122.53
2023-02-08T07:18:33.780Z,100114.00
2023-02-08T07:20:35.100Z,100116.56
2023-02-08T07:22:36.529Z,100117.41
2023-02-08T07:24:37.836Z,100122.53
2023-02-08T07:26:39.141Z,100120.78
2023-02-08T07:28:40.435Z,100119.03
2023-02-08T07:30:41.961Z,100129.16
2023-02-08T07:32:43.517Z,100124.00
2023-02-08T07:34:45.615Z,100118.03
2023-02-08T07:36:46.916Z,100118.84
2023-02-08T07:38:48.359Z,100118.81
2023-02-08T07:40:49.693Z,100118.78
2023-02-08T07:42:51.023Z,100117.00
2023-02-08T07:44:52.313Z,100122.06
2023-02-08T07:46:53.628Z,100122.03
2023-02-08T07:48:55.008Z,100125.38
2023-02-08T07:50:56.311Z,100121.06
2023-02-08T07:52:57.711Z,100132.94
2023-02-08T07:54:59.068Z,100131.22
2023-02-08T07:57:02.540Z,100128.66
2023-02-08T07:59:04.894Z,100122.69
2023-02-08T08:01:20.120Z,100132.84
2023-02-08T08:03:23.051Z,100124.34
2023-02-08T08:05:24.389Z,100121.78
2023-02-08T08:07:25.678Z,100130.31
2023-02-08T08:09:27.091Z,100133.72
2023-02-08T08:11:28.388Z,100137.19
2023-02-08T08:13:29.689Z,100138.97
2023-02-08T08:15:31.084Z,100138.19
2023-02-08T08:17:32.496Z,100134.88
2023-02-08T08:19:33.828Z,100135.84
2023-02-08T08:21:35.131Z,100141.03
2023-02-08T08:23:36.680Z,100143.66
2023-02-08T08:25:38.083Z,100131.81
2023-02-08T08:27:39.396Z,100136.13
2023-02-08T08:29:40.900Z,100139.56
2023-02-08T08:31:42.757Z,100142.13
2023-02-08T08:33:44.344Z,100146.47
2023-02-08T08:35:47.248Z,100147.28
2023-02-08T08:37:48.600Z,100148.22
2023-02-08T08:39:49.925Z,100148.19
2023-02-08T08:41:51.268Z,100150.72
2023-02-08T08:43:52.570Z,100151.53
2023-02-08T08:45:53.864Z,100151.47
2023-02-08T08:47:55.210Z,100167.59
2023-02-08T08:49:56.578Z,100155.56
2023-02-08T08:51:58.166Z,100152.09
2023-02-08T08:53:59.516Z,100165.66
2023-02-08T08:56:00.917Z,100156.28
2023-02-08T08:58:02.231Z,100166.50
2023-02-08T09:00:03.631Z,100172.44
2023-02-08T09:02:05.081Z,100167.28
2023-02-08T09:04:06.423Z,100162.13
2023-02-08T09:06:07.799Z,100158.69
2023-02-08T09:08:09.212Z,100162.09
2023-02-08T09:10:10.522Z,100168.88
2023-02-08T09:12:11.831Z,100170.59
2023-02-08T09:14:13.129Z,100181.66
2023-02-08T09:16:14.484Z,100168.00
2023-02-08T09:18:15.835Z,100162.06
2023-02-08T09:20:17.234Z,100162.09
2023-02-08T09:22:19.757Z,100149.34
2023-02-08T09:24:21.058Z,100156.16
2023-02-08T09:26:22.415Z,100153.66
2023-02-08T09:28:23.771Z,100147.75
2023-02-08T09:30:25.095Z,100148.66
2023-02-08T09:32:26.427Z,100148.72
2023-02-08T09:34:27.725Z,100147.06
2023-02-08T09:36:29.037Z,100143.78
2023-02-08T09:38:30.372Z,100153.22
2023-02-08T09:40:31.696Z,100153.31
2023-02-08T09:42:33.003Z,100142.28
2023-02-08T09:44:35.540Z,100155.16
2023-02-08T09:46:38.554Z,100149.22
2023-02-08T09:48:39.982Z,100148.41
2023-02-08T09:50:41.653Z,100148.41
2023-02-08T09:52:43.314Z,100146.72
2023-02-08T09:54:44.616Z,100152.75
2023-02-08T09:56:45.955Z,100136.56
2023-02-08T09:58:49.545Z,100140.78
2023-02-08T10:00:50.953Z,100138.25
2023-02-08T10:02:52.285Z,100140.81
2023-02-08T10:04:53.586Z,100145.06
2023-02-08T10:06:54.920Z,100139.09
2023-02-08T10:08:56.252Z,100139.88
2023-02-08T10:10:57.579Z,100143.28
2023-02-08T10:12:58.913Z,100144.97
2023-02-08T10:15:00.212Z,100140.66
2023-02-08T10:17:01.589Z,100136.34
2023-02-08T10:19:02.992Z,100129.50
2023-02-08T10:21:04.286Z,100132.88
2023-02-08T10:23:05.584Z,100135.44
2023-02-08T10:25:06.916Z,100126.00
2023-02-08T10:27:08.238Z,100127.69
2023-02-08T10:29:09.541Z,100120.81
2023-02-08T10:31:11.016Z,100126.81
2023-02-08T10:33:12.444Z,100124.22
2023-02-08T10:35:13.940Z,100123.34
2023-02-08T10:37:15.407Z,100119.06
2023-02-08T10:39:16.824Z,100112.22
2023-02-08T10:41:18.163Z,100120.75
2023-02-08T10:43:19.596Z,100114.78
2023-02-08T10:45:24.676Z,100114.81
2023-02-08T10:47:26.187Z,100108.88
2023-02-08T10:49:27.676Z,100110.59
2023-02-08T10:51:29.889Z,100103.03
2023-02-08T10:53:31.199Z,100098.81
2023-02-08T10:55:34.570Z,100090.38
2023-02-08T10:57:37.254Z,100098.09
2023-02-08T10:59:38.579Z,100099.03
2023-02-08T11:01:39.922Z,100090.53
2023-02-08T11:03:41.211Z,100100.00
2023-02-08T11:05:42.834Z,100097.47
2023-02-08T11:07:44.256Z,100089.81
2023-02-08T11:09:45.552Z,100093.25
2023-02-08T11:11:46.856Z,100084.72
2023-02-08T11:13:48.246Z,100084.75
2023-02-08T11:15:49.606Z,100077.91
2023-02-08T11:17:50.940Z,100078.78
2023-02-08T11:19:52.282Z,100081.31
2023-02-08T11:21:53.691Z,100074.47
2023-02-08T11:23:55.032Z,100072.78
2023-02-08T11:25:56.913Z,100071.03
2023-02-08T11:28:00.386Z,100065.03
2023-02-08T11:30:01.724Z,100065.00
2023-02-08T11:32:03.104Z,100076.06
2023-02-08T11:34:05.685Z,100062.38
2023-02-08T11:36:07.000Z,100068.31
2023-02-08T11:38:09.147Z,100064.84
2023-02-08T11:40:10.488Z,100058.03
2023-02-08T11:42:11.784Z,100058.00
2023-02-08T11:44:13.105Z,100065.63
2023-02-08T11:46:14.427Z,100062.22
2023-02-08T11:48:15.846Z,100062.19
2023-02-08T11:50:17.163Z,100066.41
2023-02-08T11:52:18.489Z,100062.16
2023-02-08T11:54:19.811Z,100054.47
2023-02-08T11:56:21.394Z,100057.84
2023-02-08T11:58:22.743Z,100059.50
2023-02-08T12:00:24.127Z,100056.06
2023-02-08T12:02:25.514Z,100060.31
2023-02-08T12:04:26.859Z,100056.91
2023-02-08T12:06:28.191Z,100056.06
2023-02-08T12:08:29.486Z,100058.63
2023-02-08T12:10:30.840Z,100052.66
2023-02-08T12:12:32.587Z,100060.34
2023-02-08T12:14:33.923Z,100060.44
2023-02-08T12:16:36.763Z,100061.31
2023-02-08T12:18:38.146Z,100052.00
2023-02-08T12:20:39.544Z,100064.84
2023-02-08T12:22:41.835Z,100061.44
2023-02-08T12:24:43.127Z,100052.09
2023-02-08T12:26:44.467Z,100057.22
2023-02-08T12:28:46.178Z,100050.44
2023-02-08T12:30:47.690Z,100041.91
2023-02-08T12:32:49.113Z,100048.72
2023-02-08T12:34:50.398Z,100046.16
2023-02-08T12:37:11.789Z,100043.59
2023-02-08T12:39:31.741Z,100056.41
2023-02-08T12:41:33.185Z,100042.72
2023-02-08T12:43:34.547Z,100046.09
2023-02-08T12:45:35.831Z,100046.97
2023-02-08T12:47:37.134Z,100034.13
2023-02-08T12:49:38.568Z,100038.31
2023-02-08T12:51:39.869Z,100045.94
2023-02-08T12:53:41.244Z,100032.25
2023-02-08T12:55:42.867Z,100033.91
2023-02-08T12:57:44.415Z,100041.63
2023-02-08T12:59:45.767Z,100040.72
2023-02-08T13:01:47.410Z,100033.00
2023-02-08T13:03:48.776Z,100032.97
2023-02-08T13:06:01.747Z,100026.91
2023-02-08T13:08:04.481Z,100031.13
2023-02-08T13:10:05.852Z,100028.53
2023-02-08T13:12:07.143Z,100028.53
2023-02-08T13:14:08.444Z,100033.59
2023-02-08T13:16:09.783Z,100021.63
2023-02-08T13:18:11.119Z,100030.09
2023-02-08T13:20:12.464Z,100030.94
2023-02-08T13:22:13.799Z,100022.75
2023-02-08T13:24:15.993Z,100036.63
2023-02-08T13:26:18.711Z,100022.06
2023-02-08T13:28:20.057Z,100031.34
2023-02-08T13:30:21.486Z,100023.59
2023-02-08T13:32:22.848Z,100016.56
2023-02-08T13:34:24.140Z,100013.31
2023-02-08T13:36:25.604Z,100005.22
2023-02-08T13:38:26.914Z,100008.06
2023-02-08T13:40:28.658Z,100006.44
2023-02-08T13:42:30.060Z,100001.41
2023-02-08T13:44:31.355Z,99998.84
2023-02-08T13:46:35.621Z,100000.66
2023-02-08T13:48:36.964Z,99993.78
2023-02-08T13:50:38.303Z,99998.09
2023-02-08T13:52:48.261Z,99996.38
2023-02-08T13:54:50.104Z,99996.41
2023-02-08T13:56:51.542Z,99992.94
2023-02-08T13:58:52.838Z,99987.78
2023-02-08T14:00:54.727Z,99992.91
2023-02-08T14:02:56.109Z,99986.00
2023-02-08T14:04:57.437Z,99985.13
2023-02-08T14:06:58.748Z,99984.25
2023-02-08T14:09:00.052Z,99991.97
2023-02-08T14:11:02.238Z,99991.97
2023-02-08T14:13:03.771Z,99988.50
2023-02-08T14:15:05.084Z,99991.19
2023-02-08T14:17:06.377Z,99992.88
2023-02-08T14:19:07.710Z,99980.06
2023-02-08T14:21:09.376Z,99991.00
2023-02-08T14:23:10.668Z,99989.47
2023-02-08T14:25:11.976Z,99992.13
2023-02-08T14:27:13.313Z,99990.44
2023-02-08T14:29:14.646Z,99989.50
2023-02-08T14:31:16.045Z,99982.75
2023-02-08T14:33:17.599Z,99977.59
2023-02-08T14:35:18.923Z,99983.38
2023-02-08T14:37:21.609Z,99976.34
2023-02-08T14:39:23.758Z,99971.97
2023-02-08T14:41:25.092Z,99971.88
2023-02-08T14:43:29.033Z,99969.31
2023-02-08T14:45:33.164Z,99970.13
2023-02-08T14:47:35.969Z,99965.78
2023-02-08T14:49:37.311Z,99969.22
2023-02-08T14:51:38.655Z,99964.09
2023-02-08T14:53:42.763Z,99962.38
2023-02-08T14:55:44.396Z,99964.97
2023-02-08T14:57:46.116Z,99969.22
2023-02-08T14:59:47.403Z,99972.66
2023-02-08T15:01:48.725Z,99972.66
2023-02-08T15:03:50.102Z,99971.88
2023-02-08T15:05:51.455Z,99967.63
2023-02-08T15:07:52.787Z,99983.00
2023-02-08T15:09:54.087Z,99983.94
2023-02-08T15:11:55.379Z,99978.81
2023-02-08T15:13:56.691Z,99983.09
2023-02-08T15:15:58.036Z,99989.88
2023-02-08T15:17:59.513Z,99976.28
2023-02-08T15:20:00.923Z,99978.84
2023-02-08T15:22:02.232Z,99978.88
2023-02-08T15:24:05.826Z,99976.28
2023-02-08T15:26:07.296Z,99975.44
2023-02-08T15:28:08.592Z,99979.72
2023-02-08T15:30:09.999Z,99975.44
2023-02-08T15:32:11.289Z,99967.78
2023-02-08T15:34:12.618Z,99968.63
2023-02-08T15:36:14.013Z,99966.06
2023-02-08T15:38:15.388Z,99954.38
2023-02-08T15:40:19.724Z,99956.16
2023-02-08T15:42:21.060Z,99948.44
2023-02-08T15:44:22.383Z,99950.13
2023-02-08T15:46:23.738Z,99950.16
2023-02-08T15:48:25.037Z,99949.28
2023-02-08T15:50:26.379Z,99939.03
2023-02-08T15:52:27.984Z,99946.69
2023-02-08T15:54:29.324Z,99946.72
2023-02-08T15:56:37.507Z,99944.13
2023-02-08T15:58:40.008Z,99943.28
2023-02-08T16:00:41.314Z,99946.69
2023-02-08T16:02:45.648Z,99950.94
2023-02-08T16:04:47.005Z,99949.25
2023-02-08T16:06:51.229Z,99948.38
2023-02-08T16:08:52.520Z,99949.22
2023-02-08T16:10:53.851Z,99947.53
2023-02-08T16:12:55.253Z,99959.50
2023-02-08T16:14:56.871Z,99954.38
2023-02-08T16:16:58.335Z,99958.63
2023-02-08T16:19:02.744Z,99924.44
2023-02-08T16:21:04.097Z,99943.28
2023-02-08T16:23:05.390Z,99944.97
2023-02-08T16:25:06.704Z,99943.28
2023-02-08T16:27:08.055Z,99944.13
2023-02-08T16:29:09.366Z,99941.56
2023-02-08T16:31:11.461Z,99939.88
2023-02-08T16:33:12.826Z,99941.59
2023-02-08T16:35:14.143Z,99938.19
2023-02-08T16:37:16.681Z,99948.44
2023-02-08T16:39:18.092Z,99934.75
2023-02-08T16:41:25.201Z,99928.81
2023-02-08T16:43:26.575Z,99926.28
2023-02-08T16:45:28.180Z,99924.59
2023-02-08T16:47:29.478Z,99876.75
2023-02-08T16:49:30.834Z,99923.81
2023-02-08T16:51:32.366Z,99928.09
2023-02-08T16:53:42.367Z,99927.22
2023-02-08T16:55:44.143Z,99924.66
2023-02-08T16:57:45.486Z,99930.59
2023-02-08T16:59:46.842Z,99932.34
2023-02-08T17:01:50.069Z,99931.47
2023-02-08T17:03:52.989Z,99930.63
2023-02-08T17:05:56.555Z,99931.47
2023-02-08T17:07:57.851Z,99934.06
2023-02-08T17:09:59.467Z,99928.84
2023-02-08T17:12:01.279Z,99930.47
2023-02-08T17:14:02.738Z,99932.13
2023-02-08T17:16:04.090Z,99930.41
2023-02-08T17:18:05.396Z,99926.25
2023-02-08T17:20:06.731Z,99931.41
2023-02-08T17:22:08.065Z,99931.41
2023-02-08T17:24:09.487Z,99937.41
2023-02-08T17:26:13.711Z,99932.13
2023-02-08T17:28:20.983Z,99933.88
2023-02-08T17:30:22.423Z,99933.06
2023-02-08T17:32:26.715Z,99936.50
2023-02-08T17:34:33.760Z,99939.03
2023-02-08T17:36:35.101Z,99938.25
2023-02-08T17:38:39.168Z,99933.09
2023-02-08T17:40:40.570Z,99928.00
2023-02-08T17:42:41.892Z,99931.41
2023-02-08T17:44:43.233Z,99921.16
2023-02-08T17:46:44.573Z,99924.56
2023-02-08T17:48:48.175Z,99920.34
2023-02-08T17:50:53.917Z,99916.06
2023-02-08T17:52:55.741Z,99910.00
2023-02-08T17:54:57.023Z,99921.97
2023-02-08T17:56:58.750Z,99916.03
2023-02-08T17:59:00.942Z,99911.78
2023-02-08T18:01:02.255Z,99907.53
2023-02-08T18:03:03.592Z,99902.41
2023-02-08T18:05:05.059Z,99899.00
2023-02-08T18:07:06.392Z,99901.59
2023-02-08T18:09:07.693Z,99887.06
2023-02-08T18:11:08.996Z,99888.78
2023-02-08T18:13:10.327Z,99878.53
2023-02-08T18:15:12.193Z,99873.41
2023-02-08T18:17:13.526Z,99864.03
2023-02-08T18:19:18.897Z,99870.00
2023-02-08T18:21:24.232Z,99871.72
2023-02-08T18:23:26.356Z,99879.41
2023-02-08T18:25:27.735Z,99869.13
2023-02-08T18:27:30.206Z,99880.25
2023-02-08T18:29:31.552Z,99871.69
2023-02-08T18:31:32.993Z,99873.41
2023-02-08T18:33:34.560Z,99869.16
2023-02-08T18:35:36.251Z,99870.00
2023-02-08T18:37:37.607Z,99873.41
2023-02-08T18:39:38.900Z,99866.56
2023-02-08T18:41:43.221Z,99857.16
2023-02-08T18:43:44.619Z,99853.75
2023-02-08T18:45:46.193Z,99854.59
2023-02-08T18:47:50.543Z,99851.16
2023-02-08T18:49:57.644Z,99858.84
2023-02-08T18:51:59.183Z,99857.16
2023-02-08T18:54:00.571Z,99862.28
2023-02-08T18:56:02.073Z,99861.41
2023-02-08T18:58:03.443Z,99851.06
2023-02-08T19:00:04.730Z,99845.09
2023-02-08T19:02:08.858Z,99853.66
2023-02-08T19:04:10.256Z,99853.72
2023-02-08T19:06:11.564Z,99855.41
2023-02-08T19:08:12.966Z,99854.56
2023-02-08T19:10:14.299Z,99856.28
2023-02-08T19:12:19.050Z,99861.41
2023-02-08T19:14:20.518Z,99858.84
2023-02-08T19:16:25.998Z,99854.56
2023-02-08T19:18:27.316Z,99863.09
2023-02-08T19:20:28.648Z,99861.41
2023-02-08T19:22:30.067Z,99860.56
2023-02-08T19:24:31.373Z,99863.13
2023-02-08T19:26:37.087Z,99860.56
2023-02-08T19:28:40.329Z,99856.28
2023-02-08T19:30:44.745Z,99852.00
2023-02-08T19:32:46.167Z,99846.06
2023-02-08T19:34:47.478Z,99839.25
2023-02-08T19:36:52.039Z,99837.53
2023-02-08T19:38:53.974Z,99834.00
2023-02-08T19:40:55.345Z,99831.47
2023-02-08T19:42:56.750Z,99817.00
2023-02-08T19:44:58.047Z,99810.16
2023-02-08T19:46:59.379Z,99811.06
2023-02-08T19:49:02.242Z,99802.50
2023-02-08T19:51:03.580Z,99803.31
2023-02-08T19:53:04.915Z,99804.97
2023-02-08T19:55:06.247Z,99800.69
2023-02-08T19:57:11.765Z,99799.84
2023-02-08T19:59:13.134Z,99796.38
2023-02-08T20:01:14.501Z,99803.22
2023-02-08T20:03:21.560Z,99792.09
2023-02-08T20:05:23.423Z,99788.69
2023-02-08T20:07:24.739Z,99781.00
2023-02-08T20:09:26.155Z,99775.91
2023-02-08T20:11:27.454Z,99787.78
2023-02-08T20:13:28.839Z,99787.81
2023-02-08T20:15:30.131Z,99775.84
2023-02-08T20:17:31.432Z,99783.53
2023-02-08T20:19:32.759Z,99777.53
2023-02-08T20:21:39.617Z,99780.09
2023-02-08T20:23:40.952Z,99772.50
2023-02-08T20:25:42.647Z,99782.81
2023-02-08T20:27:44.187Z,99769.19
2023-02-08T20:29:45.680Z,99768.34
2023-02-08T20:31:53.547Z,99770.06
2023-02-08T20:33:59.749Z,99767.53
2023-02-08T20:36:01.078Z,99764.94
2023-02-08T20:38:02.408Z,99765.78
2023-02-08T20:40:03.720Z,99757.25
2023-02-08T20:42:05.059Z,99751.28
2023-02-08T20:44:06.399Z,99754.69
2023-02-08T20:46:07.781Z,99744.44
2023-02-08T20:48:09.313Z,99756.38
2023-02-08T20:50:23.803Z,99747.00
2023-02-08T20:52:25.176Z,99746.13
2023-02-08T20:54:26.542Z,99746.13
2023-02-08T20:56:27.854Z,99739.25
2023-02-08T20:58:29.199Z,99733.31
2023-02-08T21:00:40.074Z,99727.34
2023-02-08T21:02:43.158Z,99728.25
2023-02-08T21:04:44.542Z,99734.47
2023-02-08T21:06:46.314Z,99744.44
2023-02-08T21:08:52.074Z,99732.28
2023-02-08T21:10:53.387Z,99724.25
2023-02-08T21:12:57.758Z,99725.09
2023-02-08T21:14:59.064Z,99727.25
2023-02-08T21:17:00.465Z,99728.19
2023-02-08T21:19:02.254Z,99734.22
2023-02-08T21:21:03.556Z,99729.13
2023-02-08T21:23:04.854Z,99720.56
2023-02-08T21:25:06.164Z,99719.66
2023-02-08T21:27:07.751Z,99720.50
2023-02-08T21:29:09.102Z,99723.91
2023-02-08T21:31:10.464Z,99714.50
2023-02-08T21:33:11.820Z,99717.81
2023-02-08T21:35:13.169Z,99724.09
2023-02-08T21:37:14.496Z,99720.53
2023-02-08T21:39:15.857Z,99710.00
2023-02-08T21:41:17.152Z,99694.78
2023-02-08T21:43:18.637Z,99694.63
2023-02-08T21:45:19.940Z,99690.34
2023-02-08T21:47:21.231Z,99683.75
2023-02-08T21:49:40.996Z,99675.28
2023-02-08T21:52:00.819Z,99671.06
2023-02-08T21:54:20.824Z,99658.28
2023-02-08T21:56:22.123Z,99635.25
2023-02-08T21:58:23.416Z,99646.38
2023-02-08T22:00:24.727Z,99636.97
2023-02-08T22:02:26.167Z,99628.44
2023-02-08T22:04:27.526Z,99629.28
2023-02-08T22:06:28.830Z,99634.44
2023-02-08T22:08:30.136Z,99621.66
2023-02-08T22:10:34.120Z,99624.19
2023-02-08T22:12:35.494Z,99614.84
2023-02-08T22:14:36.800Z,99603.72
2023-02-08T22:16:38.148Z,99615.63
2023-02-08T22:18:41.426Z,99609.66
2023-02-08T22:20:44.975Z,99609.66
2023-02-08T22:22:46.604Z,99612.22
2023-02-08T22:24:47.897Z,99611.38
2023-02-08T22:26:49.293Z,99614.78
2023-02-08T22:28:50.587Z,99607.97
2023-02-08T22:30:51.976Z,99615.63
2023-02-08T22:32:53.323Z,99611.38
2023-02-08T22:34:54.877Z,99618.19
2023-02-08T22:36:56.192Z,99614.78
2023-02-08T22:38:57.579Z,99621.59
2023-02-08T22:40:58.889Z,99618.16
2023-02-08T22:43:00.211Z,99618.16
2023-02-08T22:45:02.193Z,99610.47
2023-02-08T22:47:03.580Z,99608.75
2023-02-08T22:49:04.928Z,99621.50
2023-02-08T22:51:06.478Z,99616.38
2023-02-08T22:53:07.804Z,99602.75
2023-02-08T22:55:09.139Z,99609.56
2023-02-08T22:57:10.474Z,99612.97
2023-02-08T22:59:11.761Z,99612.94
2023-02-08T23:01:13.128Z,99610.38
2023-02-08T23:03:14.572Z,99610.38
2023-02-08T23:05:16.015Z,99612.06
2023-02-08T23:07:17.404Z,99606.13
2023-02-08T23:09:18.705Z,99613.78
2023-02-08T23:11:20.012Z,99606.97
2023-02-08T23:13:21.309Z,99603.59
2023-02-08T23:15:22.636Z,99606.16
2023-02-08T23:17:23.971Z,99600.25
2023-02-08T23:19:25.394Z,99594.28
2023-02-08T23:21:26.688Z,99590.88
2023-02-08T23:23:27.988Z,99580.69
2023-02-08T23:25:29.284Z,99584.94
2023-02-08T23:27:30.571Z,99577.28
2023-02-08T23:29:31.900Z,99571.31